Taganrogskiy Zaliv — 9HA2995 — position and weather

sailwx.info

Track history (hours):
 
Tides and Currents Weather Stations Pressure Air Temp Water Temp Dewpoint Dewpoint Depression Visibility Wind Speed Wind Dir Waves Ship Positions

Taganrogskiy Zaliv

Last reported at 2018-Apr-18 02:01 UTC. Time now 2018-Apr-22 06:30 UTC.
Position N 45°29' E 036°49'.

Length 128 m; draft 3 m.

Type: Ship. MMSI: 229019000.

Date/timePositionNaut miles runAvg speedWind from/ knotsBaromVisibWave heightAir tempDewpointWater temp
2018-Apr-18 02:01N 45°29' E 036°49'0 8.7
2018-Apr-18 02:00N 45°29' E 036°49'7 8.1
2018-Apr-18 01:11N 45°25' E 036°42'1 8.5
2018-Apr-18 01:01N 45°24' E 036°41'4 7.5
2018-Apr-18 00:30N 45°21' E 036°38'5 9.9
2018-Apr-18 00:01N 45°19' E 036°31'4 7.5
2018-Apr-17 23:31N 45°15' E 036°29'3 6.4
2018-Apr-17 23:00N 45°12' E 036°30'1 1.1
2018-Apr-17 22:30N 45°12' E 036°30'0 0.4
2018-Apr-17 21:34N 45°11' E 036°30'0 7.1
2018-Apr-17 21:30N 45°11' E 036°30'  
2018-Apr-10 19:27N 45°15' E 036°28'4 6.3
2018-Apr-10 18:53N 45°18' E 036°30'3 9.0
2018-Apr-10 18:30N 45°20' E 036°35'4 8.4
2018-Apr-10 18:01N 45°22' E 036°40'3 6.3
2018-Apr-10 17:29N 45°25' E 036°41'4 8.7
2018-Apr-10 17:01N 45°29' E 036°38'2 0.0
2018-Apr-09 05:15N 45°30' E 036°37'1 2.9
2018-Apr-09 04:59N 45°30' E 036°38'4 7.4
2018-Apr-09 04:31N 45°33' E 036°40'  
Track history (hours):
 
Tides and Currents Weather Stations Pressure Air Temp Water Temp Dewpoint Dewpoint Depression Visibility Wind Speed Wind Dir Waves Ship Positions

Taganrogskiy Zaliv

Last reported at 2018-Apr-18 02:01 UTC. Time now 2018-Apr-22 06:30 UTC.
Position N 45°29' E 036°49'.

Length 128 m; draft 3 m.

Type: Ship. MMSI: 229019000.

Date/timePositionNaut miles runAvg speedWind from/ knotsBaromVisibWave heightAir tempDewpointWater temp
2018-Apr-18 02:01N 45°29' E 036°49'0 8.7
2018-Apr-18 02:00N 45°29' E 036°49'7 8.1
2018-Apr-18 01:11N 45°25' E 036°42'1 8.5
2018-Apr-18 01:01N 45°24' E 036°41'4 7.5
2018-Apr-18 00:30N 45°21' E 036°38'5 9.9
2018-Apr-18 00:01N 45°19' E 036°31'4 7.5
2018-Apr-17 23:31N 45°15' E 036°29'3 6.4
2018-Apr-17 23:00N 45°12' E 036°30'1 1.1
2018-Apr-17 22:30N 45°12' E 036°30'0 0.4
2018-Apr-17 21:34N 45°11' E 036°30'0 7.1
2018-Apr-17 21:30N 45°11' E 036°30'  
2018-Apr-10 19:27N 45°15' E 036°28'4 6.3
2018-Apr-10 18:53N 45°18' E 036°30'3 9.0
2018-Apr-10 18:30N 45°20' E 036°35'4 8.4
2018-Apr-10 18:01N 45°22' E 036°40'3 6.3
2018-Apr-10 17:29N 45°25' E 036°41'4 8.7
2018-Apr-10 17:01N 45°29' E 036°38'2 0.0
2018-Apr-09 05:15N 45°30' E 036°37'1 2.9
2018-Apr-09 04:59N 45°30' E 036°38'4 7.4
2018-Apr-09 04:31N 45°33' E 036°40'  

Dump ship's entire track history